createdAt,value
2022-08-03T00:04:33.966Z,3.16
2022-08-03T00:07:03.295Z,2.54
2022-08-03T00:14:33.351Z,3.19
2022-08-03T00:17:03.394Z,3.18
2022-08-03T00:22:03.412Z,3.52
2022-08-03T00:24:33.434Z,2.33
2022-08-03T00:27:03.478Z,3.62
2022-08-03T00:34:57.915Z,2.29
2022-08-03T00:39:33.595Z,1.67
2022-08-03T00:42:03.638Z,2.82
2022-08-03T00:44:33.637Z,2.06
2022-08-03T00:47:03.698Z,4.26
2022-08-03T00:52:09.420Z,3.25
2022-08-03T00:54:33.762Z,3.1
2022-08-03T01:04:33.827Z,4.63
2022-08-03T01:07:03.867Z,4.91
2022-08-03T01:19:33.966Z,3.25
2022-08-03T01:22:04.027Z,2.52
2022-08-03T01:27:04.046Z,2.32
2022-08-03T01:29:34.076Z,2.97
2022-08-03T01:34:34.125Z,5.02
2022-08-03T01:39:34.160Z,5.75
2022-08-03T01:42:04.202Z,5.94
2022-08-03T01:47:04.230Z,4.27
2022-08-03T01:49:34.302Z,5.27
2022-08-03T01:59:34.386Z,3.09
2022-08-03T02:02:28.515Z,2.47
2022-08-03T02:04:34.396Z,2.63
2022-08-03T02:09:34.476Z,5
2022-08-03T02:12:04.480Z,4.96
2022-08-03T02:19:35.857Z,6.84
2022-08-03T02:22:04.580Z,5.55
2022-08-03T02:24:34.597Z,3.59
2022-08-03T02:27:04.639Z,8.88
2022-08-03T02:29:39.213Z,5.75
2022-08-03T02:32:04.667Z,4.49
2022-08-03T02:37:04.858Z,5.84
2022-08-03T02:42:04.752Z,8.58
2022-08-03T02:44:34.789Z,6.19
2022-08-03T02:52:04.868Z,4.92
2022-08-03T02:54:34.898Z,3.83
2022-08-03T02:59:34.917Z,5.77
2022-08-03T03:07:05.007Z,5.06
2022-08-03T03:09:41.853Z,3.81
2022-08-03T03:12:05.054Z,3.59
2022-08-03T03:14:35.065Z,4.56
2022-08-03T03:17:05.128Z,4.26
2022-08-03T03:22:05.182Z,4.13
2022-08-03T03:27:05.184Z,6.7
2022-08-03T03:29:39.243Z,4.9
2022-08-03T03:32:05.249Z,3.84
2022-08-03T03:34:35.262Z,3.8
2022-08-03T03:39:35.317Z,3.33
2022-08-03T03:42:05.326Z,6.04
2022-08-03T03:49:35.456Z,7.21
2022-08-03T03:52:05.441Z,6.16
2022-08-03T03:57:05.474Z,9.59
2022-08-03T03:59:36.052Z,6.04
2022-08-03T04:02:05.550Z,5.21
2022-08-03T04:07:05.584Z,8.75
2022-08-03T04:09:35.602Z,6.42
2022-08-03T04:12:05.646Z,4.63
2022-08-03T04:19:35.702Z,4.58
2022-08-03T04:22:05.728Z,4.68
2022-08-03T04:24:35.729Z,4.43
2022-08-03T04:27:05.774Z,4.96
2022-08-03T04:29:35.782Z,6.03
2022-08-03T04:32:05.813Z,8.17
2022-08-03T04:34:35.868Z,5.47
2022-08-03T04:42:07.999Z,8.72
2022-08-03T04:49:36.060Z,4.27
2022-08-03T04:52:06.013Z,4.69
2022-08-03T04:54:36.022Z,5.27
2022-08-03T04:57:06.034Z,6.3
2022-08-03T04:59:36.066Z,7.56
2022-08-03T05:02:06.164Z,9.88
2022-08-03T05:09:50.838Z,4.87
2022-08-03T05:12:06.195Z,6.03
2022-08-03T05:14:36.213Z,6.41
2022-08-03T05:19:36.253Z,7.18
2022-08-03T05:22:06.308Z,7.81
2022-08-03T05:24:36.320Z,11.94
2022-08-03T05:27:06.342Z,9.56
2022-08-03T05:29:36.358Z,7.66
2022-08-03T05:32:08.429Z,7.62
2022-08-03T05:34:36.411Z,12.6
2022-08-03T05:37:06.425Z,9.67
2022-08-03T05:39:36.437Z,7.08
2022-08-03T05:42:06.483Z,10.86
2022-08-03T05:44:36.485Z,8.47
2022-08-03T05:47:06.520Z,7.95
2022-08-03T05:49:36.613Z,6.53
2022-08-03T05:52:15.872Z,6.29
2022-08-03T05:59:38.521Z,6.56
2022-08-03T06:07:06.711Z,4.94
2022-08-03T06:10:36.190Z,15.65
2022-08-03T06:12:09.114Z,10.65
2022-08-03T06:14:36.793Z,8.13
2022-08-03T06:17:06.818Z,13.09
2022-08-03T06:19:36.822Z,11.6
2022-08-03T06:22:06.860Z,8.97
2022-08-03T06:24:36.863Z,8.72
2022-08-03T06:27:06.891Z,6.8
2022-08-03T06:32:06.939Z,4.59
2022-08-03T06:34:36.964Z,6.69
2022-08-03T06:37:07.001Z,7.6
2022-08-03T06:39:37.028Z,8.65
2022-08-03T06:44:37.081Z,4.75
2022-08-03T06:49:37.255Z,5.36
2022-08-03T06:52:07.184Z,5.87
2022-08-03T06:54:37.161Z,5.51
2022-08-03T06:57:07.187Z,6.44
2022-08-03T07:00:08.292Z,8.04
2022-08-03T07:02:07.237Z,7.89
2022-08-03T07:07:07.324Z,6.97
2022-08-03T07:09:37.294Z,5.91
2022-08-03T07:12:07.358Z,6.3
2022-08-03T07:14:37.347Z,5.49
2022-08-03T07:17:12.000Z,4.33
2022-08-03T07:24:37.453Z,5.32
2022-08-03T07:27:07.477Z,8.7
2022-08-03T07:29:37.486Z,6.53
2022-08-03T07:32:07.526Z,11.15
2022-08-03T07:37:07.573Z,7.46
2022-08-03T07:39:37.597Z,5.93
2022-08-03T07:42:07.624Z,5.47
2022-08-03T07:44:37.626Z,5.28
2022-08-03T07:49:37.737Z,6.63
2022-08-03T07:54:37.741Z,6.6
2022-08-03T07:57:07.758Z,7.24
2022-08-03T07:59:56.628Z,5.47
2022-08-03T08:04:37.846Z,4.84
2022-08-03T08:07:07.864Z,7.21
2022-08-03T08:09:37.990Z,9.36
2022-08-03T08:12:15.215Z,6.78
2022-08-03T08:14:37.920Z,8.66
2022-08-03T08:17:07.960Z,5.44
2022-08-03T08:19:38.333Z,3.99
2022-08-03T08:24:38.020Z,4.88
2022-08-03T08:27:08.059Z,8.14
2022-08-03T08:29:38.083Z,6.89
2022-08-03T08:32:08.080Z,6.09
2022-08-03T08:34:38.115Z,4.72
2022-08-03T08:37:08.134Z,4.72
2022-08-03T08:42:08.190Z,7.28
2022-08-03T08:44:38.218Z,6.94
2022-08-03T08:47:08.241Z,7.01
2022-08-03T08:49:38.307Z,5.35
2022-08-03T08:52:25.489Z,4.72
2022-08-03T08:57:21.329Z,5.3
2022-08-03T08:59:49.009Z,6.27
2022-08-03T09:02:08.362Z,8.39
2022-08-03T09:07:20.112Z,9.07
2022-08-03T09:10:10.560Z,11.03
2022-08-03T09:12:35.427Z,13.69
2022-08-03T09:14:49.752Z,11.4
2022-08-03T09:17:08.519Z,7.51
2022-08-03T09:19:38.547Z,6.8
2022-08-03T09:22:08.702Z,6.25
2022-08-03T09:29:38.641Z,7.89
2022-08-03T09:34:38.694Z,7.82
2022-08-03T09:37:08.879Z,6.91
2022-08-03T09:39:42.022Z,6.01
2022-08-03T09:42:08.770Z,10.93
2022-08-03T09:44:38.786Z,12.21
2022-08-03T09:47:08.806Z,9.31
2022-08-03T09:49:38.892Z,7.83
2022-08-03T09:54:38.967Z,6.68
2022-08-03T09:57:08.894Z,11.23
2022-08-03T09:59:41.242Z,8.32
2022-08-03T10:04:38.969Z,10.98
2022-08-03T10:09:39.009Z,11.03
2022-08-03T10:12:09.032Z,8.6
2022-08-03T10:14:39.076Z,8.8
2022-08-03T10:17:09.077Z,6.98
2022-08-03T10:22:09.128Z,10.01
2022-08-03T10:24:39.162Z,10.54
2022-08-03T10:27:09.171Z,11.42
2022-08-03T10:29:39.222Z,8.54
2022-08-03T10:34:42.596Z,7.51
2022-08-03T10:42:14.736Z,7.67
2022-08-03T10:47:09.367Z,7.53
2022-08-03T10:54:39.450Z,8.08
2022-08-03T10:57:14.176Z,7.76
2022-08-03T10:59:39.490Z,8.77
2022-08-03T11:02:09.533Z,10.04
2022-08-03T11:04:39.572Z,7.6
2022-08-03T11:07:09.548Z,7.84
2022-08-03T11:14:39.669Z,10.11
2022-08-03T11:17:14.392Z,8.29
2022-08-03T11:22:09.696Z,7.65
2022-08-03T11:29:39.790Z,8.51
2022-08-03T11:34:39.837Z,9.05
2022-08-03T11:39:40.050Z,7.93
2022-08-03T11:42:09.902Z,7.78
2022-08-03T11:47:09.950Z,6.05
2022-08-03T11:49:40.002Z,4.98
2022-08-03T11:52:10.002Z,9.04
2022-08-03T11:54:40.054Z,5.64
2022-08-03T11:57:10.551Z,4.56
2022-08-03T11:59:40.065Z,7.3
2022-08-03T12:02:10.096Z,9.22
2022-08-03T12:04:40.113Z,8.1
2022-08-03T12:07:10.162Z,6.17
2022-08-03T12:12:10.184Z,5.54
2022-08-03T12:14:50.243Z,9.52
2022-08-03T12:17:10.238Z,11.84
2022-08-03T12:24:40.311Z,8.03
2022-08-03T12:29:40.365Z,8.64
2022-08-03T12:32:17.477Z,6.77
2022-08-03T12:37:22.518Z,5.76
2022-08-03T12:44:40.506Z,8.81
2022-08-03T12:47:10.545Z,7.39
2022-08-03T12:49:40.629Z,9.05
2022-08-03T12:52:10.562Z,7.05
2022-08-03T12:57:10.630Z,6.77
2022-08-03T12:59:41.419Z,6.2
2022-08-03T13:02:10.745Z,5.42
2022-08-03T13:07:12.624Z,7.94
2022-08-03T13:09:40.735Z,6.26
2022-08-03T13:12:10.937Z,9.83
2022-08-03T13:14:40.816Z,7.52
2022-08-03T13:17:10.832Z,7.42
2022-08-03T13:19:40.839Z,5.98
2022-08-03T13:22:10.861Z,7.32
2022-08-03T13:24:40.877Z,5.36
2022-08-03T13:28:01.464Z,7.01
2022-08-03T13:29:40.926Z,5.82
2022-08-03T13:32:10.973Z,6.97
2022-08-03T13:34:40.979Z,4.56
2022-08-03T13:37:11.028Z,3.83
2022-08-03T13:39:57.598Z,4.64
2022-08-03T13:42:11.064Z,3.24
2022-08-03T13:44:41.209Z,3.39
2022-08-03T13:49:41.537Z,2.85
2022-08-03T13:52:11.147Z,2.89
2022-08-03T13:54:41.202Z,4.29
2022-08-03T13:59:41.236Z,7.81
2022-08-03T14:02:11.304Z,5.62
2022-08-03T14:04:41.286Z,4.94
2022-08-03T14:07:11.289Z,4.9
2022-08-03T14:12:11.356Z,5.4
2022-08-03T14:14:41.357Z,5.39
2022-08-03T14:19:53.324Z,3.91
2022-08-03T14:22:11.573Z,5.91
2022-08-03T14:24:41.476Z,7.29
2022-08-03T14:29:41.518Z,3.88
2022-08-03T14:32:13.108Z,3.6
2022-08-03T14:34:41.564Z,2.97
2022-08-03T14:37:11.594Z,4.19
2022-08-03T14:40:01.143Z,3.21
2022-08-03T14:42:11.643Z,5.81
2022-08-03T14:44:41.678Z,5.73
2022-08-03T14:47:11.744Z,5.18
2022-08-03T14:52:11.759Z,2.9
2022-08-03T14:54:41.772Z,2.58
2022-08-03T14:57:11.879Z,2.96
2022-08-03T14:59:56.898Z,2.57
2022-08-03T15:02:21.226Z,4.2
2022-08-03T15:04:41.865Z,4.25
2022-08-03T15:07:11.955Z,3.34
2022-08-03T15:09:41.929Z,3.13
2022-08-03T15:12:11.954Z,3.84
2022-08-03T15:14:41.983Z,3.22
2022-08-03T15:17:12.010Z,7.07
2022-08-03T15:22:12.072Z,5.31
2022-08-03T15:24:42.122Z,4.19
2022-08-03T15:27:12.179Z,3.08
2022-08-03T15:30:07.560Z,3.14
2022-08-03T15:32:12.164Z,2.51
2022-08-03T15:34:42.187Z,3.41
2022-08-03T15:37:23.193Z,2.61
2022-08-03T15:39:59.967Z,2.4
2022-08-03T15:42:12.264Z,2.73
2022-08-03T15:44:42.305Z,7.43
2022-08-03T15:47:12.364Z,6.37
2022-08-03T15:49:42.351Z,5.07
2022-08-03T15:52:12.362Z,4.97
2022-08-03T15:54:42.394Z,3.73
2022-08-03T15:57:12.474Z,2.45
2022-08-03T15:59:42.428Z,2.49
2022-08-03T16:02:12.493Z,2.31
2022-08-03T16:04:42.500Z,4.28
2022-08-03T16:07:12.797Z,4.3
2022-08-03T16:09:43.890Z,4.27
2022-08-03T16:12:16.295Z,3.55
2022-08-03T16:14:51.831Z,2.51
2022-08-03T16:22:12.686Z,3.56
2022-08-03T16:24:42.703Z,4.67
2022-08-03T16:27:36.833Z,3.59
2022-08-03T16:29:42.758Z,3.1
2022-08-03T16:32:12.787Z,3.09
2022-08-03T16:34:42.810Z,3.87
2022-08-03T16:39:42.879Z,6.2
2022-08-03T16:44:42.915Z,4.49
2022-08-03T16:47:22.074Z,3.82
2022-08-03T16:49:53.957Z,5.67
2022-08-03T16:52:13.312Z,3.82
2022-08-03T16:54:43.005Z,6.74
2022-08-03T16:57:13.052Z,4.89
2022-08-03T16:59:43.059Z,4
2022-08-03T17:02:13.186Z,3.6
2022-08-03T17:04:43.110Z,3.29
2022-08-03T17:07:13.145Z,4.05
2022-08-03T17:09:43.192Z,3.6
2022-08-03T17:12:13.218Z,3.83
2022-08-03T17:14:43.227Z,3.66
2022-08-03T17:17:16.305Z,7.19
2022-08-03T17:22:13.474Z,4.53
2022-08-03T17:24:43.332Z,4.33
2022-08-03T17:27:18.493Z,2.92
2022-08-03T17:29:45.074Z,3.52
2022-08-03T17:32:17.874Z,2.73
2022-08-03T17:34:43.434Z,2.9
2022-08-03T17:37:27.403Z,2.4
2022-08-03T17:39:58.278Z,5
2022-08-03T17:42:31.368Z,4.42
2022-08-03T17:44:47.200Z,3.28
2022-08-03T17:47:13.583Z,6.21
2022-08-03T17:49:43.604Z,4.38
2022-08-03T17:52:17.570Z,3.26
2022-08-03T17:55:56.536Z,5.89
2022-08-03T17:57:22.411Z,4.24
2022-08-03T18:02:23.791Z,3.14
2022-08-03T18:04:43.761Z,3.86
2022-08-03T18:07:13.775Z,4.19
2022-08-03T18:10:04.422Z,4.71
2022-08-03T18:12:13.956Z,3.95
2022-08-03T18:14:46.370Z,4.15
2022-08-03T18:17:13.906Z,4.3
2022-08-03T18:20:01.391Z,4.73
2022-08-03T18:24:44.517Z,4.84
2022-08-03T18:27:14.220Z,3.73
2022-08-03T18:29:44.026Z,2.85
2022-08-03T18:32:16.874Z,3.2
2022-08-03T18:34:53.176Z,3.28
2022-08-03T18:37:14.098Z,3.37
2022-08-03T18:39:50.244Z,3.45
2022-08-03T18:42:19.699Z,3.91
2022-08-03T18:44:54.268Z,5.96
2022-08-03T18:47:15.981Z,3.9
2022-08-03T18:49:44.324Z,8.09
2022-08-03T18:52:14.296Z,6.35
2022-08-03T18:54:51.756Z,7.02
2022-08-03T18:57:14.297Z,5.08
2022-08-03T18:59:44.329Z,4.26
2022-08-03T19:04:44.379Z,2.75
2022-08-03T19:07:14.465Z,2.51
2022-08-03T19:09:44.401Z,2.93
2022-08-03T19:14:44.469Z,3.36
2022-08-03T19:17:14.513Z,2.82
2022-08-03T19:24:44.616Z,2.93
2022-08-03T19:27:16.059Z,3.38
2022-08-03T19:32:14.639Z,5.05
2022-08-03T19:34:45.992Z,5.13
2022-08-03T19:37:14.741Z,7.49
2022-08-03T19:39:44.808Z,6.29
2022-08-03T19:42:22.969Z,5.08
2022-08-03T19:44:44.874Z,8.12
2022-08-03T19:47:16.846Z,7
2022-08-03T19:49:56.982Z,6.06
2022-08-03T19:52:14.850Z,5.64
2022-08-03T19:57:15.995Z,3.84
2022-08-03T19:59:49.997Z,3.64
2022-08-03T20:02:17.535Z,3.1
2022-08-03T20:04:44.964Z,3.07
2022-08-03T20:07:18.063Z,6.6
2022-08-03T20:09:45.022Z,8.87
2022-08-03T20:12:15.034Z,7.8
2022-08-03T20:14:45.063Z,5.8
2022-08-03T20:17:15.106Z,9.08
2022-08-03T20:19:45.183Z,9.23
2022-08-03T20:22:15.135Z,7.62
2022-08-03T20:24:49.363Z,8.88
2022-08-03T20:30:06.401Z,5.36
2022-08-03T20:32:15.242Z,4.22
2022-08-03T20:34:45.262Z,4.47
2022-08-03T20:37:15.283Z,6.96
2022-08-03T20:42:15.334Z,5.46
2022-08-03T20:47:23.724Z,5.59
2022-08-03T20:49:46.061Z,3.94
2022-08-03T20:52:18.424Z,3.81
2022-08-03T20:54:45.440Z,5.35
2022-08-03T20:59:50.860Z,5.73
2022-08-03T21:02:19.906Z,4.69
2022-08-03T21:04:47.331Z,4.15
2022-08-03T21:07:16.823Z,4.07
2022-08-03T21:09:49.417Z,5.91
2022-08-03T21:12:18.908Z,5.02
2022-08-03T21:14:46.938Z,6.54
2022-08-03T21:19:51.979Z,5.17
2022-08-03T21:22:15.731Z,3.65
2022-08-03T21:24:45.764Z,4.82
2022-08-03T21:29:53.065Z,4.69
2022-08-03T21:32:16.782Z,4.38
2022-08-03T21:34:45.837Z,4.42
2022-08-03T21:37:15.876Z,4.88
2022-08-03T21:39:51.120Z,4.82
2022-08-03T21:42:15.953Z,5.35
2022-08-03T21:47:16.064Z,3.99
2022-08-03T21:50:06.135Z,4.55
2022-08-03T21:52:16.010Z,7.4
2022-08-03T21:54:46.049Z,6.9
2022-08-03T21:57:16.052Z,5.32
2022-08-03T21:59:46.081Z,6.48
2022-08-03T22:02:22.591Z,6.09
2022-08-03T22:04:55.789Z,5.97
2022-08-03T22:07:16.189Z,6.14
2022-08-03T22:12:16.190Z,6.63
2022-08-03T22:14:46.203Z,4.93
2022-08-03T22:19:46.251Z,4.61
2022-08-03T22:24:46.319Z,4.81
2022-08-03T22:27:16.332Z,4.33
2022-08-03T22:29:46.368Z,4.22
2022-08-03T22:32:16.406Z,3.71
2022-08-03T22:34:46.404Z,3.83
2022-08-03T22:39:46.477Z,4.16
2022-08-03T22:42:16.487Z,3.74
2022-08-03T22:47:16.544Z,4.9
2022-08-03T22:49:46.557Z,6.77
2022-08-03T22:52:16.593Z,7.25
2022-08-03T22:54:46.607Z,5.64
2022-08-03T22:57:16.651Z,5.17
2022-08-03T22:59:46.669Z,4.35
2022-08-03T23:02:20.127Z,4.49
2022-08-03T23:04:46.715Z,4.48
2022-08-03T23:07:16.728Z,4.63
2022-08-03T23:09:46.754Z,5.24
2022-08-03T23:12:16.796Z,5.93
2022-08-03T23:14:46.827Z,6.42
2022-08-03T23:24:46.900Z,4.26
2022-08-03T23:27:16.937Z,6.02
2022-08-03T23:32:16.981Z,3.39
2022-08-03T23:37:17.024Z,4.34
2022-08-03T23:42:24.387Z,3.8
2022-08-03T23:47:24.649Z,3.48
2022-08-03T23:52:25.334Z,5.9
2022-08-03T23:54:54.499Z,6.38
2022-08-03T23:57:24.697Z,5.41
